sensor_id;sensor_type;location;lat;lon;timestamp;P1;durP1;ratioP1;P2;durP2;ratioP2
73239;SDS011;61452;40.054;4.110;2024-01-25T00:03:01;1.73;;;1.00;;
73239;SDS011;61452;40.054;4.110;2024-01-25T00:08:03;2.45;;;1.05;;
73239;SDS011;61452;40.054;4.110;2024-01-25T00:13:06;1.35;;;0.90;;
73239;SDS011;61452;40.054;4.110;2024-01-25T00:18:08;1.30;;;1.00;;
73239;SDS011;61452;40.054;4.110;2024-01-25T00:23:10;1.25;;;0.88;;
73239;SDS011;61452;40.054;4.110;2024-01-25T00:28:13;1.63;;;0.80;;
73239;SDS011;61452;40.054;4.110;2024-01-25T00:33:15;1.60;;;0.90;;
73239;SDS011;61452;40.054;4.110;2024-01-25T00:38:17;1.60;;;1.05;;
73239;SDS011;61452;40.054;4.110;2024-01-25T00:43:20;1.20;;;0.82;;
73239;SDS011;61452;40.054;4.110;2024-01-25T00:48:22;1.70;;;0.93;;
73239;SDS011;61452;40.054;4.110;2024-01-25T00:53:25;1.67;;;0.75;;
73239;SDS011;61452;40.054;4.110;2024-01-25T00:58:27;1.13;;;0.70;;
73239;SDS011;61452;40.054;4.110;2024-01-25T01:03:30;1.50;;;0.77;;
73239;SDS011;61452;40.054;4.110;2024-01-25T01:08:32;1.52;;;0.90;;
73239;SDS011;61452;40.054;4.110;2024-01-25T01:13:34;1.70;;;1.00;;
73239;SDS011;61452;40.054;4.110;2024-01-25T01:18:36;1.48;;;0.88;;
73239;SDS011;61452;40.054;4.110;2024-01-25T01:23:40;1.13;;;1.00;;
73239;SDS011;61452;40.054;4.110;2024-01-25T01:28:42;1.30;;;0.80;;
73239;SDS011;61452;40.054;4.110;2024-01-25T01:33:45;1.13;;;1.00;;
73239;SDS011;61452;40.054;4.110;2024-01-25T01:38:47;1.65;;;0.70;;
73239;SDS011;61452;40.054;4.110;2024-01-25T01:43:53;1.50;;;0.77;;
73239;SDS011;61452;40.054;4.110;2024-01-25T01:48:56;1.27;;;0.80;;
73239;SDS011;61452;40.054;4.110;2024-01-25T01:54:02;1.35;;;0.90;;
73239;SDS011;61452;40.054;4.110;2024-01-25T01:59:05;0.85;;;0.52;;
73239;SDS011;61452;40.054;4.110;2024-01-25T02:04:12;1.45;;;1.00;;
73239;SDS011;61452;40.054;4.110;2024-01-25T02:09:14;1.40;;;0.98;;
73239;SDS011;61452;40.054;4.110;2024-01-25T02:14:16;1.10;;;0.75;;
73239;SDS011;61452;40.054;4.110;2024-01-25T02:19:18;0.80;;;0.70;;
73239;SDS011;61452;40.054;4.110;2024-01-25T02:24:20;1.30;;;0.70;;
73239;SDS011;61452;40.054;4.110;2024-01-25T02:29:23;1.25;;;0.90;;
73239;SDS011;61452;40.054;4.110;2024-01-25T02:34:25;1.88;;;0.90;;
73239;SDS011;61452;40.054;4.110;2024-01-25T02:39:27;1.77;;;0.82;;
73239;SDS011;61452;40.054;4.110;2024-01-25T02:44:30;1.00;;;0.80;;
73239;SDS011;61452;40.054;4.110;2024-01-25T02:49:32;1.30;;;0.68;;
73239;SDS011;61452;40.054;4.110;2024-01-25T02:54:34;1.08;;;0.82;;
73239;SDS011;61452;40.054;4.110;2024-01-25T02:59:38;1.08;;;0.80;;
73239;SDS011;61452;40.054;4.110;2024-01-25T03:04:40;1.38;;;1.00;;
73239;SDS011;61452;40.054;4.110;2024-01-25T03:09:42;1.25;;;0.70;;
73239;SDS011;61452;40.054;4.110;2024-01-25T03:14:44;1.95;;;0.93;;
73239;SDS011;61452;40.054;4.110;2024-01-25T03:19:46;0.73;;;0.65;;
73239;SDS011;61452;40.054;4.110;2024-01-25T03:24:50;1.45;;;1.30;;
73239;SDS011;61452;40.054;4.110;2024-01-25T03:29:52;1.60;;;0.80;;
73239;SDS011;61452;40.054;4.110;2024-01-25T03:34:54;1.05;;;0.70;;
73239;SDS011;61452;40.054;4.110;2024-01-25T03:39:56;2.30;;;0.95;;
73239;SDS011;61452;40.054;4.110;2024-01-25T03:44:58;0.88;;;0.60;;
73239;SDS011;61452;40.054;4.110;2024-01-25T03:50:01;1.40;;;0.85;;
73239;SDS011;61452;40.054;4.110;2024-01-25T03:55:03;1.08;;;0.90;;
73239;SDS011;61452;40.054;4.110;2024-01-25T04:00:06;1.10;;;0.77;;
73239;SDS011;61452;40.054;4.110;2024-01-25T04:05:09;1.00;;;0.80;;
73239;SDS011;61452;40.054;4.110;2024-01-25T04:10:11;0.90;;;0.63;;
73239;SDS011;61452;40.054;4.110;2024-01-25T04:15:13;1.77;;;0.80;;
73239;SDS011;61452;40.054;4.110;2024-01-25T04:20:15;1.23;;;0.90;;
73239;SDS011;61452;40.054;4.110;2024-01-25T04:25:18;1.30;;;0.80;;
73239;SDS011;61452;40.054;4.110;2024-01-25T04:30:20;1.55;;;1.00;;
73239;SDS011;61452;40.054;4.110;2024-01-25T04:35:22;1.50;;;0.90;;
73239;SDS011;61452;40.054;4.110;2024-01-25T04:40:24;1.20;;;0.70;;
73239;SDS011;61452;40.054;4.110;2024-01-25T04:45:26;1.80;;;0.98;;
73239;SDS011;61452;40.054;4.110;2024-01-25T04:50:29;1.42;;;0.90;;
73239;SDS011;61452;40.054;4.110;2024-01-25T04:55:31;1.20;;;0.85;;
73239;SDS011;61452;40.054;4.110;2024-01-25T05:00:33;1.30;;;0.70;;
73239;SDS011;61452;40.054;4.110;2024-01-25T05:05:35;1.67;;;1.05;;
73239;SDS011;61452;40.054;4.110;2024-01-25T05:10:37;1.52;;;0.90;;
73239;SDS011;61452;40.054;4.110;2024-01-25T05:15:39;1.35;;;0.82;;
73239;SDS011;61452;40.054;4.110;2024-01-25T05:20:42;1.17;;;0.82;;
73239;SDS011;61452;40.054;4.110;2024-01-25T05:25:44;1.00;;;0.80;;
73239;SDS011;61452;40.054;4.110;2024-01-25T05:30:46;1.48;;;0.90;;
73239;SDS011;61452;40.054;4.110;2024-01-25T05:35:48;1.83;;;1.00;;
73239;SDS011;61452;40.054;4.110;2024-01-25T05:40:50;1.50;;;1.00;;
73239;SDS011;61452;40.054;4.110;2024-01-25T05:45:52;0.90;;;0.73;;
73239;SDS011;61452;40.054;4.110;2024-01-25T05:50:54;1.88;;;0.95;;
73239;SDS011;61452;40.054;4.110;2024-01-25T05:55:56;2.00;;;0.95;;
73239;SDS011;61452;40.054;4.110;2024-01-25T06:00:59;1.83;;;0.98;;
73239;SDS011;61452;40.054;4.110;2024-01-25T06:06:01;1.77;;;0.80;;
73239;SDS011;61452;40.054;4.110;2024-01-25T06:11:04;1.95;;;0.80;;
73239;SDS011;61452;40.054;4.110;2024-01-25T06:16:06;0.95;;;0.82;;
73239;SDS011;61452;40.054;4.110;2024-01-25T06:21:08;1.35;;;1.10;;
73239;SDS011;61452;40.054;4.110;2024-01-25T06:26:11;1.38;;;0.80;;
73239;SDS011;61452;40.054;4.110;2024-01-25T06:31:13;1.42;;;0.80;;
73239;SDS011;61452;40.054;4.110;2024-01-25T06:36:16;1.55;;;0.93;;
73239;SDS011;61452;40.054;4.110;2024-01-25T06:41:18;0.73;;;0.68;;
73239;SDS011;61452;40.054;4.110;2024-01-25T06:46:20;0.95;;;0.77;;
73239;SDS011;61452;40.054;4.110;2024-01-25T06:51:22;1.35;;;0.98;;
73239;SDS011;61452;40.054;4.110;2024-01-25T06:56:26;1.85;;;0.90;;
73239;SDS011;61452;40.054;4.110;2024-01-25T07:01:28;1.50;;;1.10;;
73239;SDS011;61452;40.054;4.110;2024-01-25T07:06:33;1.73;;;0.90;;
73239;SDS011;61452;40.054;4.110;2024-01-25T07:11:35;1.25;;;0.90;;
73239;SDS011;61452;40.054;4.110;2024-01-25T07:16:37;1.30;;;0.80;;
73239;SDS011;61452;40.054;4.110;2024-01-25T07:21:39;1.60;;;0.70;;
73239;SDS011;61452;40.054;4.110;2024-01-25T07:26:42;1.58;;;1.05;;
73239;SDS011;61452;40.054;4.110;2024-01-25T07:31:44;1.27;;;0.80;;
73239;SDS011;61452;40.054;4.110;2024-01-25T07:36:46;1.25;;;0.90;;
73239;SDS011;61452;40.054;4.110;2024-01-25T07:41:48;2.03;;;0.88;;
73239;SDS011;61452;40.054;4.110;2024-01-25T07:46:51;1.20;;;0.80;;
73239;SDS011;61452;40.054;4.110;2024-01-25T07:51:54;1.48;;;0.88;;
73239;SDS011;61452;40.054;4.110;2024-01-25T07:56:58;1.58;;;1.20;;
73239;SDS011;61452;40.054;4.110;2024-01-25T08:02:01;1.85;;;0.98;;
73239;SDS011;61452;40.054;4.110;2024-01-25T08:07:03;1.50;;;1.05;;
73239;SDS011;61452;40.054;4.110;2024-01-25T08:12:05;1.30;;;1.00;;
73239;SDS011;61452;40.054;4.110;2024-01-25T08:17:08;2.40;;;0.90;;
73239;SDS011;61452;40.054;4.110;2024-01-25T08:22:10;1.20;;;0.90;;
73239;SDS011;61452;40.054;4.110;2024-01-25T08:27:12;1.52;;;0.90;;
73239;SDS011;61452;40.054;4.110;2024-01-25T08:32:16;1.50;;;0.90;;
73239;SDS011;61452;40.054;4.110;2024-01-25T08:37:19;1.42;;;1.00;;
73239;SDS011;61452;40.054;4.110;2024-01-25T08:42:21;1.45;;;0.70;;
73239;SDS011;61452;40.054;4.110;2024-01-25T08:47:23;1.20;;;1.00;;
73239;SDS011;61452;40.054;4.110;2024-01-25T08:52:25;1.30;;;1.00;;
73239;SDS011;61452;40.054;4.110;2024-01-25T08:57:28;1.38;;;0.75;;
73239;SDS011;61452;40.054;4.110;2024-01-25T09:02:30;1.58;;;0.85;;
73239;SDS011;61452;40.054;4.110;2024-01-25T09:07:34;1.25;;;0.82;;
73239;SDS011;61452;40.054;4.110;2024-01-25T09:12:37;1.02;;;0.80;;
73239;SDS011;61452;40.054;4.110;2024-01-25T09:17:39;1.20;;;0.93;;
73239;SDS011;61452;40.054;4.110;2024-01-25T09:22:42;1.45;;;0.90;;
73239;SDS011;61452;40.054;4.110;2024-01-25T09:27:45;1.55;;;0.80;;
73239;SDS011;61452;40.054;4.110;2024-01-25T09:32:47;1.80;;;0.88;;
73239;SDS011;61452;40.054;4.110;2024-01-25T09:37:50;1.20;;;0.80;;
73239;SDS011;61452;40.054;4.110;2024-01-25T09:42:54;1.45;;;1.00;;
73239;SDS011;61452;40.054;4.110;2024-01-25T09:47:57;1.80;;;1.40;;
73239;SDS011;61452;40.054;4.110;2024-01-25T09:53:00;1.52;;;1.00;;
73239;SDS011;61452;40.054;4.110;2024-01-25T09:58:02;1.63;;;1.13;;
73239;SDS011;61452;40.054;4.110;2024-01-25T10:03:09;1.75;;;0.95;;
73239;SDS011;61452;40.054;4.110;2024-01-25T10:08:12;2.25;;;1.10;;
73239;SDS011;61452;40.054;4.110;2024-01-25T10:13:15;1.85;;;1.02;;
73239;SDS011;61452;40.054;4.110;2024-01-25T10:18:17;2.03;;;1.10;;
73239;SDS011;61452;40.054;4.110;2024-01-25T10:23:30;2.85;;;1.15;;
73239;SDS011;61452;40.054;4.110;2024-01-25T10:28:32;3.35;;;1.15;;
73239;SDS011;61452;40.054;4.110;2024-01-25T10:33:35;6.22;;;1.50;;
73239;SDS011;61452;40.054;4.110;2024-01-25T10:38:41;2.15;;;0.95;;
73239;SDS011;61452;40.054;4.110;2024-01-25T10:43:46;1.48;;;1.08;;
73239;SDS011;61452;40.054;4.110;2024-01-25T10:48:48;2.13;;;1.13;;
73239;SDS011;61452;40.054;4.110;2024-01-25T10:58:54;2.47;;;1.25;;
73239;SDS011;61452;40.054;4.110;2024-01-25T11:03:57;1.60;;;1.10;;
73239;SDS011;61452;40.054;4.110;2024-01-25T11:09:05;2.63;;;1.20;;
73239;SDS011;61452;40.054;4.110;2024-01-25T11:14:11;2.33;;;1.33;;
73239;SDS011;61452;40.054;4.110;2024-01-25T11:19:19;3.95;;;1.35;;
73239;SDS011;61452;40.054;4.110;2024-01-25T11:24:23;3.25;;;1.02;;
73239;SDS011;61452;40.054;4.110;2024-01-25T11:29:29;2.88;;;1.33;;
73239;SDS011;61452;40.054;4.110;2024-01-25T11:34:32;4.82;;;1.50;;
73239;SDS011;61452;40.054;4.110;2024-01-25T11:39:34;2.15;;;1.05;;
73239;SDS011;61452;40.054;4.110;2024-01-25T11:44:36;2.42;;;1.17;;
73239;SDS011;61452;40.054;4.110;2024-01-25T11:49:39;3.47;;;1.27;;
73239;SDS011;61452;40.054;4.110;2024-01-25T11:54:41;5.07;;;1.83;;
73239;SDS011;61452;40.054;4.110;2024-01-25T11:59:43;2.67;;;1.20;;
73239;SDS011;61452;40.054;4.110;2024-01-25T12:04:48;4.55;;;1.40;;
73239;SDS011;61452;40.054;4.110;2024-01-25T12:09:58;1.70;;;1.10;;
73239;SDS011;61452;40.054;4.110;2024-01-25T12:15:02;3.58;;;1.80;;
73239;SDS011;61452;40.054;4.110;2024-01-25T12:20:07;2.58;;;1.50;;
73239;SDS011;61452;40.054;4.110;2024-01-25T12:25:13;2.70;;;1.40;;
73239;SDS011;61452;40.054;4.110;2024-01-25T12:30:16;3.72;;;1.65;;
73239;SDS011;61452;40.054;4.110;2024-01-25T12:35:19;2.50;;;1.20;;
73239;SDS011;61452;40.054;4.110;2024-01-25T12:40:21;2.60;;;1.23;;
73239;SDS011;61452;40.054;4.110;2024-01-25T12:45:23;4.07;;;1.42;;
73239;SDS011;61452;40.054;4.110;2024-01-25T12:50:26;2.15;;;1.20;;
73239;SDS011;61452;40.054;4.110;2024-01-25T12:55:28;4.10;;;1.40;;
73239;SDS011;61452;40.054;4.110;2024-01-25T13:00:31;1.70;;;1.30;;
73239;SDS011;61452;40.054;4.110;2024-01-25T13:05:35;2.65;;;1.63;;
73239;SDS011;61452;40.054;4.110;2024-01-25T13:10:37;2.00;;;1.40;;
73239;SDS011;61452;40.054;4.110;2024-01-25T13:15:39;2.30;;;1.30;;
73239;SDS011;61452;40.054;4.110;2024-01-25T13:20:41;4.10;;;1.65;;
73239;SDS011;61452;40.054;4.110;2024-01-25T13:25:43;2.25;;;1.13;;
73239;SDS011;61452;40.054;4.110;2024-01-25T13:30:45;1.85;;;1.10;;
73239;SDS011;61452;40.054;4.110;2024-01-25T13:35:47;1.88;;;1.17;;
73239;SDS011;61452;40.054;4.110;2024-01-25T13:40:50;2.33;;;1.25;;
73239;SDS011;61452;40.054;4.110;2024-01-25T13:45:52;2.50;;;1.25;;
73239;SDS011;61452;40.054;4.110;2024-01-25T13:50:55;2.88;;;1.30;;
73239;SDS011;61452;40.054;4.110;2024-01-25T13:55:58;3.17;;;1.25;;
73239;SDS011;61452;40.054;4.110;2024-01-25T14:01:00;3.85;;;1.30;;
73239;SDS011;61452;40.054;4.110;2024-01-25T14:06:02;4.97;;;1.23;;
73239;SDS011;61452;40.054;4.110;2024-01-25T14:11:10;3.30;;;1.35;;
73239;SDS011;61452;40.054;4.110;2024-01-25T14:16:12;3.00;;;1.10;;
73239;SDS011;61452;40.054;4.110;2024-01-25T14:21:20;3.20;;;1.23;;
73239;SDS011;61452;40.054;4.110;2024-01-25T14:26:23;2.50;;;1.52;;
73239;SDS011;61452;40.054;4.110;2024-01-25T14:31:25;4.10;;;1.45;;
73239;SDS011;61452;40.054;4.110;2024-01-25T14:36:27;4.03;;;1.90;;
73239;SDS011;61452;40.054;4.110;2024-01-25T14:41:30;3.83;;;2.17;;
73239;SDS011;61452;40.054;4.110;2024-01-25T14:46:33;5.28;;;1.85;;
73239;SDS011;61452;40.054;4.110;2024-01-25T14:51:35;4.15;;;1.65;;
73239;SDS011;61452;40.054;4.110;2024-01-25T14:56:37;2.90;;;1.50;;
73239;SDS011;61452;40.054;4.110;2024-01-25T15:01:40;3.78;;;1.55;;
73239;SDS011;61452;40.054;4.110;2024-01-25T15:06:42;5.22;;;1.92;;
73239;SDS011;61452;40.054;4.110;2024-01-25T15:11:45;4.65;;;1.83;;
73239;SDS011;61452;40.054;4.110;2024-01-25T15:16:48;4.03;;;1.80;;
73239;SDS011;61452;40.054;4.110;2024-01-25T15:21:50;3.28;;;1.83;;
73239;SDS011;61452;40.054;4.110;2024-01-25T15:26:52;3.60;;;1.98;;
73239;SDS011;61452;40.054;4.110;2024-01-25T15:31:54;3.25;;;1.92;;
73239;SDS011;61452;40.054;4.110;2024-01-25T15:36:56;3.80;;;2.00;;
73239;SDS011;61452;40.054;4.110;2024-01-25T15:41:58;2.90;;;2.15;;
73239;SDS011;61452;40.054;4.110;2024-01-25T15:47:00;5.30;;;2.60;;
73239;SDS011;61452;40.054;4.110;2024-01-25T15:52:02;5.57;;;2.33;;
73239;SDS011;61452;40.054;4.110;2024-01-25T15:57:05;6.00;;;2.30;;
73239;SDS011;61452;40.054;4.110;2024-01-25T16:02:10;6.55;;;2.60;;
73239;SDS011;61452;40.054;4.110;2024-01-25T16:07:12;3.20;;;2.00;;
73239;SDS011;61452;40.054;4.110;2024-01-25T16:12:14;3.75;;;2.30;;
73239;SDS011;61452;40.054;4.110;2024-01-25T16:17:16;4.28;;;2.28;;
73239;SDS011;61452;40.054;4.110;2024-01-25T16:22:19;3.28;;;2.03;;
73239;SDS011;61452;40.054;4.110;2024-01-25T16:27:21;3.47;;;2.10;;
73239;SDS011;61452;40.054;4.110;2024-01-25T16:32:23;6.22;;;1.95;;
73239;SDS011;61452;40.054;4.110;2024-01-25T16:37:25;3.80;;;2.05;;
73239;SDS011;61452;40.054;4.110;2024-01-25T16:42:27;4.45;;;2.22;;
73239;SDS011;61452;40.054;4.110;2024-01-25T16:47:30;4.60;;;2.10;;
73239;SDS011;61452;40.054;4.110;2024-01-25T16:52:32;6.00;;;2.60;;
73239;SDS011;61452;40.054;4.110;2024-01-25T16:57:34;3.05;;;2.38;;
73239;SDS011;61452;40.054;4.110;2024-01-25T17:02:36;3.58;;;2.30;;
73239;SDS011;61452;40.054;4.110;2024-01-25T17:07:38;3.83;;;2.03;;
73239;SDS011;61452;40.054;4.110;2024-01-25T17:12:40;3.85;;;1.90;;
73239;SDS011;61452;40.054;4.110;2024-01-25T17:17:43;3.90;;;1.95;;
73239;SDS011;61452;40.054;4.110;2024-01-25T17:22:45;2.50;;;1.80;;
73239;SDS011;61452;40.054;4.110;2024-01-25T17:27:47;2.95;;;1.95;;
73239;SDS011;61452;40.054;4.110;2024-01-25T17:32:51;3.58;;;2.05;;
73239;SDS011;61452;40.054;4.110;2024-01-25T17:37:54;3.03;;;1.92;;
73239;SDS011;61452;40.054;4.110;2024-01-25T17:42:56;2.78;;;2.10;;
73239;SDS011;61452;40.054;4.110;2024-01-25T17:47:58;2.88;;;1.77;;
73239;SDS011;61452;40.054;4.110;2024-01-25T17:53:01;3.75;;;1.70;;
73239;SDS011;61452;40.054;4.110;2024-01-25T17:58:04;2.70;;;1.75;;
73239;SDS011;61452;40.054;4.110;2024-01-25T18:03:06;3.63;;;1.73;;
73239;SDS011;61452;40.054;4.110;2024-01-25T18:08:08;3.13;;;1.88;;
73239;SDS011;61452;40.054;4.110;2024-01-25T18:13:10;3.45;;;2.08;;
73239;SDS011;61452;40.054;4.110;2024-01-25T18:18:12;3.22;;;1.80;;
73239;SDS011;61452;40.054;4.110;2024-01-25T18:23:15;3.00;;;1.70;;
73239;SDS011;61452;40.054;4.110;2024-01-25T18:28:17;4.13;;;1.65;;
73239;SDS011;61452;40.054;4.110;2024-01-25T18:33:20;2.47;;;1.73;;
73239;SDS011;61452;40.054;4.110;2024-01-25T18:38:23;3.25;;;1.70;;
73239;SDS011;61452;40.054;4.110;2024-01-25T18:43:25;3.65;;;1.55;;
73239;SDS011;61452;40.054;4.110;2024-01-25T18:48:27;2.38;;;1.70;;
73239;SDS011;61452;40.054;4.110;2024-01-25T18:53:30;2.60;;;1.77;;
73239;SDS011;61452;40.054;4.110;2024-01-25T18:58:33;3.63;;;1.90;;
73239;SDS011;61452;40.054;4.110;2024-01-25T19:03:35;2.85;;;1.45;;
73239;SDS011;61452;40.054;4.110;2024-01-25T19:08:38;2.70;;;1.60;;
73239;SDS011;61452;40.054;4.110;2024-01-25T19:13:40;1.98;;;1.48;;
73239;SDS011;61452;40.054;4.110;2024-01-25T19:18:42;3.53;;;1.63;;
73239;SDS011;61452;40.054;4.110;2024-01-25T19:23:45;2.85;;;1.70;;
73239;SDS011;61452;40.054;4.110;2024-01-25T19:28:48;2.55;;;1.85;;
73239;SDS011;61452;40.054;4.110;2024-01-25T19:33:50;2.95;;;1.67;;
73239;SDS011;61452;40.054;4.110;2024-01-25T19:38:52;2.50;;;1.40;;
73239;SDS011;61452;40.054;4.110;2024-01-25T19:43:54;2.67;;;1.65;;
73239;SDS011;61452;40.054;4.110;2024-01-25T19:48:56;3.25;;;1.80;;
73239;SDS011;61452;40.054;4.110;2024-01-25T19:53:58;3.50;;;1.83;;
73239;SDS011;61452;40.054;4.110;2024-01-25T19:59:01;3.40;;;1.55;;
73239;SDS011;61452;40.054;4.110;2024-01-25T20:04:03;2.22;;;1.65;;
73239;SDS011;61452;40.054;4.110;2024-01-25T20:09:06;1.85;;;1.23;;
73239;SDS011;61452;40.054;4.110;2024-01-25T20:14:08;2.00;;;1.52;;
73239;SDS011;61452;40.054;4.110;2024-01-25T20:19:10;2.28;;;1.77;;
73239;SDS011;61452;40.054;4.110;2024-01-25T20:24:12;1.80;;;1.30;;
73239;SDS011;61452;40.054;4.110;2024-01-25T20:29:14;2.13;;;1.77;;
73239;SDS011;61452;40.054;4.110;2024-01-25T20:34:17;3.90;;;1.70;;
73239;SDS011;61452;40.054;4.110;2024-01-25T20:39:21;1.83;;;1.60;;
73239;SDS011;61452;40.054;4.110;2024-01-25T20:44:23;2.80;;;1.50;;
73239;SDS011;61452;40.054;4.110;2024-01-25T20:49:25;3.58;;;1.60;;
73239;SDS011;61452;40.054;4.110;2024-01-25T20:54:27;2.83;;;1.60;;
73239;SDS011;61452;40.054;4.110;2024-01-25T21:04:33;2.25;;;1.42;;
73239;SDS011;61452;40.054;4.110;2024-01-25T21:09:36;2.67;;;1.50;;
73239;SDS011;61452;40.054;4.110;2024-01-25T21:14:38;2.60;;;1.40;;
73239;SDS011;61452;40.054;4.110;2024-01-25T21:19:41;2.42;;;1.42;;
73239;SDS011;61452;40.054;4.110;2024-01-25T21:24:43;2.33;;;1.45;;
73239;SDS011;61452;40.054;4.110;2024-01-25T21:29:45;2.63;;;1.30;;
73239;SDS011;61452;40.054;4.110;2024-01-25T21:34:47;3.67;;;1.70;;
73239;SDS011;61452;40.054;4.110;2024-01-25T21:39:49;1.85;;;1.17;;
73239;SDS011;61452;40.054;4.110;2024-01-25T21:44:52;1.77;;;1.30;;
73239;SDS011;61452;40.054;4.110;2024-01-25T21:49:54;2.10;;;1.50;;
73239;SDS011;61452;40.054;4.110;2024-01-25T21:54:57;3.03;;;1.70;;
73239;SDS011;61452;40.054;4.110;2024-01-25T21:59:59;2.40;;;1.45;;
73239;SDS011;61452;40.054;4.110;2024-01-25T22:05:04;2.22;;;1.50;;
73239;SDS011;61452;40.054;4.110;2024-01-25T22:10:07;2.53;;;1.40;;
73239;SDS011;61452;40.054;4.110;2024-01-25T22:15:09;2.20;;;1.50;;
73239;SDS011;61452;40.054;4.110;2024-01-25T22:20:13;2.30;;;1.50;;
73239;SDS011;61452;40.054;4.110;2024-01-25T22:25:15;1.63;;;1.52;;
73239;SDS011;61452;40.054;4.110;2024-01-25T22:30:17;2.38;;;1.52;;
73239;SDS011;61452;40.054;4.110;2024-01-25T22:35:21;1.50;;;1.20;;
73239;SDS011;61452;40.054;4.110;2024-01-25T22:40:23;2.38;;;1.60;;
73239;SDS011;61452;40.054;4.110;2024-01-25T22:45:25;2.95;;;1.38;;
73239;SDS011;61452;40.054;4.110;2024-01-25T22:50:27;2.42;;;1.63;;
73239;SDS011;61452;40.054;4.110;2024-01-25T22:55:29;1.63;;;1.42;;
73239;SDS011;61452;40.054;4.110;2024-01-25T23:00:31;2.00;;;1.25;;
73239;SDS011;61452;40.054;4.110;2024-01-25T23:05:33;1.70;;;1.33;;
73239;SDS011;61452;40.054;4.110;2024-01-25T23:10:35;2.08;;;1.30;;
73239;SDS011;61452;40.054;4.110;2024-01-25T23:15:38;2.13;;;1.48;;
73239;SDS011;61452;40.054;4.110;2024-01-25T23:20:40;1.45;;;0.90;;
73239;SDS011;61452;40.054;4.110;2024-01-25T23:25:42;1.60;;;1.30;;
73239;SDS011;61452;40.054;4.110;2024-01-25T23:30:48;2.40;;;1.55;;
73239;SDS011;61452;40.054;4.110;2024-01-25T23:35:50;2.10;;;1.27;;
73239;SDS011;61452;40.054;4.110;2024-01-25T23:40:52;1.60;;;1.17;;
73239;SDS011;61452;40.054;4.110;2024-01-25T23:45:56;1.83;;;1.10;;
73239;SDS011;61452;40.054;4.110;2024-01-25T23:50:58;1.67;;;1.10;;
73239;SDS011;61452;40.054;4.110;2024-01-25T23:56:01;1.90;;;1.23;;
